NCAR-RAP Real-Time Weather Data

Output produced by METARs form (17 January 2018  22:29 UTC)
found at http://weather.rap.ucar.edu/surface/
 
Conditions at: KX60 observed 17 January 2018  22:15 UTC
Temperature: 11.0°C (52°F)
Dewpoint: 3.0°C (37°F) [RH = 58%]
Pressure (altimeter): 30.27 inches Hg (1025.1 mb)
Winds: from the WNW (290 degrees) at 9 MPH (8 knots; 4.2 m/s)
Visibility: 9 miles (14 km)
Ceiling: unknown
Clouds: missing
Present Weather: automated observation with no human augmentation;
there may or may not be significant weather present at this time
KX60 172215Z AUTO 29008KT 9SM 11/03 A3027 RMK A01

Conditions at: KX60 observed 17 January 2018  21:55 UTC
Temperature: 12.0°C (54°F)
Dewpoint: 3.0°C (37°F) [RH = 54%]
Pressure (altimeter): 30.27 inches Hg (1025.1 mb)
Winds: from the W (280 degrees) at 9 MPH (8 knots; 4.2 m/s)
Visibility: 10 or more miles (16+ km)
Ceiling: unknown
Clouds: missing
Present Weather: automated observation with no human augmentation;
there may or may not be significant weather present at this time
KX60 172155Z AUTO 28008KT 10SM 12/03 A3027 RMK A01

Conditions at: KX60 observed 17 January 2018  21:35 UTC
Temperature: 12.0°C (54°F)
Dewpoint: 3.0°C (37°F) [RH = 54%]
Pressure (altimeter): 30.27 inches Hg (1025.1 mb)
Winds: from the W (280 degrees) at 10 MPH (9 knots; 4.7 m/s)
gusting to 20 MPH (17 knots; 8.8 m/s)
Visibility: 10 or more miles (16+ km)
Ceiling: unknown
Clouds: missing
Present Weather: automated observation with no human augmentation;
there may or may not be significant weather present at this time
KX60 172135Z AUTO 28009G17KT 10SM 12/03 A3027 RMK A01

Conditions at: KX60 observed 17 January 2018  21:15 UTC
Temperature: 12.0°C (54°F)
Dewpoint: 5.0°C (41°F) [RH = 62%]
Pressure (altimeter): 30.26 inches Hg (1024.8 mb)
Winds: from the WNW (290 degrees) at 10 MPH (9 knots; 4.7 m/s)
gusting to 18 MPH (16 knots; 8.3 m/s)
Visibility: 9 miles (14 km)
Ceiling: unknown
Clouds: missing
Present Weather: automated observation with no human augmentation;
there may or may not be significant weather present at this time
KX60 172115Z AUTO 29009G16KT 9SM 12/05 A3026 RMK A01

Conditions at: KX60 observed 17 January 2018  20:55 UTC
Temperature: 13.0°C (55°F)
Dewpoint: 5.0°C (41°F) [RH = 58%]
Pressure (altimeter): 30.26 inches Hg (1024.8 mb)
Winds: from the WNW (290 degrees) at 12 MPH (10 knots; 5.2 m/s)
Visibility: 10 or more miles (16+ km)
Ceiling: unknown
Clouds: missing
Present Weather: automated observation with no human augmentation;
there may or may not be significant weather present at this time
KX60 172055Z AUTO 29010KT 10SM 13/05 A3026 RMK A01

Conditions at: KX60 observed 17 January 2018  20:35 UTC
Temperature: 13.0°C (55°F)
Dewpoint: 5.0°C (41°F) [RH = 58%]
Pressure (altimeter): 30.26 inches Hg (1024.8 mb)
Winds: from the WNW (290 degrees) at 14 MPH (12 knots; 6.2 m/s)
Visibility: 9 miles (14 km)
Ceiling: unknown
Clouds: missing
Present Weather: automated observation with no human augmentation;
there may or may not be significant weather present at this time
KX60 172035Z AUTO 29012KT 9SM 13/05 A3026 RMK A01

Conditions at: KX60 observed 17 January 2018  20:15 UTC
Temperature: 13.0°C (55°F)
Dewpoint: 5.0°C (41°F) [RH = 58%]
Pressure (altimeter): 30.26 inches Hg (1024.8 mb)
Winds: from the WNW (300 degrees) at 13 MPH (11 knots; 5.7 m/s)
Visibility: 9 miles (14 km)
Ceiling: unknown
Clouds: missing
Present Weather: automated observation with no human augmentation;
there may or may not be significant weather present at this time
KX60 172015Z AUTO 30011KT 9SM 13/05 A3026 RMK A01

Conditions at: KX60 observed 17 January 2018  19:55 UTC
Temperature: 13.0°C (55°F)
Dewpoint: 5.0°C (41°F) [RH = 58%]
Pressure (altimeter): 30.26 inches Hg (1024.8 mb)
Winds: from the WNW (290 degrees) at 10 MPH (9 knots; 4.7 m/s)
gusting to 17 MPH (15 knots; 7.8 m/s)
Visibility: 9 miles (14 km)
Ceiling: unknown
Clouds: missing
Present Weather: automated observation with no human augmentation;
there may or may not be significant weather present at this time
KX60 171955Z AUTO 29009G15KT 9SM 13/05 A3026 RMK A01

Conditions at: KX60 observed 17 January 2018  19:35 UTC
Temperature: 13.0°C (55°F)
Dewpoint: 5.0°C (41°F) [RH = 58%]
Pressure (altimeter): 30.26 inches Hg (1024.8 mb)
Winds: from the WNW (300 degrees) at 9 MPH (8 knots; 4.2 m/s)
gusting to 21 MPH (18 knots; 9.4 m/s)
Visibility: 9 miles (14 km)
Ceiling: unknown
Clouds: missing
Present Weather: automated observation with no human augmentation;
there may or may not be significant weather present at this time
KX60 171935Z AUTO 30008G18KT 9SM 13/05 A3026 RMK A01

Conditions at: KX60 observed 17 January 2018  19:15 UTC
Temperature: 13.0°C (55°F)
Dewpoint: 5.0°C (41°F) [RH = 58%]
Pressure (altimeter): 30.26 inches Hg (1024.8 mb)
Winds: from the WNW (290 degrees) at 9 MPH (8 knots; 4.2 m/s)
gusting to 16 MPH (14 knots; 7.3 m/s)
Visibility: 9 miles (14 km)
Ceiling: unknown
Clouds: missing
Present Weather: automated observation with no human augmentation;
there may or may not be significant weather present at this time
KX60 171915Z AUTO 29008G14KT 9SM 13/05 A3026 RMK A01

Conditions at: KX60 observed 17 January 2018  18:55 UTC
Temperature: 11.0°C (52°F)
Dewpoint: 6.0°C (43°F) [RH = 71%]
Pressure (altimeter): 30.26 inches Hg (1024.8 mb)
Winds: variable direction winds at 7 MPH (6 knots; 3.1 m/s)
Visibility: 7 miles (11 km)
Ceiling: unknown
Clouds: missing
Present Weather: automated observation with no human augmentation;
there may or may not be significant weather present at this time
KX60 171855Z AUTO VRB06KT 7SM 11/06 A3026 RMK A01

Conditions at: KX60 observed 17 January 2018  18:35 UTC
Temperature: 10.0°C (50°F)
Dewpoint: 6.0°C (43°F) [RH = 76%]
Pressure (altimeter): 30.25 inches Hg (1024.5 mb)
Winds: from the NW (310 degrees) at 8 MPH (7 knots; 3.6 m/s)
Visibility: 6 miles (10 km)
Ceiling: unknown
Clouds: missing
Present Weather: HZ  (haze)
KX60 171835Z AUTO 31007KT 6SM HZ 10/06 A3025 RMK A01

Conditions at: KX60 observed 17 January 2018  18:15 UTC
Temperature: 11.0°C (52°F)
Dewpoint: 6.0°C (43°F) [RH = 71%]
Pressure (altimeter): 30.28 inches Hg (1025.5 mb)
Winds: from the NW (310 degrees) at 12 MPH (10 knots; 5.2 m/s)
Visibility: 6 miles (10 km)
Ceiling: unknown
Clouds: missing
Present Weather: HZ  (haze)
KX60 171815Z AUTO 31010KT 6SM HZ 11/06 A3028 RMK A01

Conditions at: KX60 observed 17 January 2018  17:55 UTC
Temperature: 12.0°C (54°F)
Dewpoint: 7.0°C (45°F) [RH = 71%]
Pressure (altimeter): 30.29 inches Hg (1025.8 mb)
Winds: from the W (280 degrees) at 14 MPH (12 knots; 6.2 m/s)
Visibility: 8 miles (13 km)
Ceiling: unknown
Clouds: missing
Present Weather: automated observation with no human augmentation;
there may or may not be significant weather present at this time
KX60 171755Z AUTO 28012KT 8SM 12/07 A3029 RMK A01

Conditions at: KX60 observed 17 January 2018  17:35 UTC
Temperature: 13.0°C (55°F)
Dewpoint: 7.0°C (45°F) [RH = 67%]
Pressure (altimeter): 30.29 inches Hg (1025.8 mb)
Winds: from the NW (310 degrees) at 13 MPH (11 knots; 5.7 m/s)
Visibility: 8 miles (13 km)
Ceiling: unknown
Clouds: missing
Present Weather: automated observation with no human augmentation;
there may or may not be significant weather present at this time
KX60 171735Z AUTO 31011KT 8SM 13/07 A3029 RMK A01

Conditions at: KX60 observed 17 January 2018  17:15 UTC
Temperature: 14.0°C (57°F)
Dewpoint: 7.0°C (45°F) [RH = 63%]
Pressure (altimeter): 30.30 inches Hg (1026.2 mb)
Winds: from the WNW (290 degrees) at 14 MPH (12 knots; 6.2 m/s)
Visibility: 9 miles (14 km)
Ceiling: unknown
Clouds: missing
Present Weather: automated observation with no human augmentation;
there may or may not be significant weather present at this time
KX60 171715Z AUTO 29012KT 9SM 14/07 A3030 RMK A01

Conditions at: KX60 observed 17 January 2018  16:55 UTC
Temperature: 15.0°C (59°F)
Dewpoint: 8.0°C (46°F) [RH = 63%]
Pressure (altimeter): 30.30 inches Hg (1026.2 mb)
Winds: from the WNW (290 degrees) at 13 MPH (11 knots; 5.7 m/s)
gusting to 18 MPH (16 knots; 8.3 m/s)
Visibility: 9 miles (14 km)
Ceiling: unknown
Clouds: missing
Present Weather: automated observation with no human augmentation;
there may or may not be significant weather present at this time
KX60 171655Z AUTO 29011G16KT 9SM 15/08 A3030 RMK A01

Conditions at: KX60 observed 17 January 2018  16:35 UTC
Temperature: 14.0°C (57°F)
Dewpoint: 8.0°C (46°F) [RH = 67%]
Pressure (altimeter): 30.30 inches Hg (1026.2 mb)
Winds: from the NW (310 degrees) at 13 MPH (11 knots; 5.7 m/s)
Visibility: 9 miles (14 km)
Ceiling: unknown
Clouds: missing
Present Weather: automated observation with no human augmentation;
there may or may not be significant weather present at this time
KX60 171635Z AUTO 31011KT 9SM 14/08 A3030 RMK A01

Conditions at: KX60 observed 17 January 2018  16:15 UTC
Temperature: 15.0°C (59°F)
Dewpoint: 8.0°C (46°F) [RH = 63%]
Pressure (altimeter): 30.31 inches Hg (1026.5 mb)
Winds: from the NW (310 degrees) at 12 MPH (10 knots; 5.2 m/s)
Visibility: 8 miles (13 km)
Ceiling: unknown
Clouds: missing
Present Weather: automated observation with no human augmentation;
there may or may not be significant weather present at this time
KX60 171615Z AUTO 31010KT 8SM 15/08 A3031 RMK A01

Conditions at: KX60 observed 17 January 2018  15:55 UTC
Temperature: 15.0°C (59°F)
Dewpoint: 9.0°C (48°F) [RH = 67%]
Pressure (altimeter): 30.31 inches Hg (1026.5 mb)
Winds: from the W (260 degrees) at 10 MPH (9 knots; 4.7 m/s)
Visibility: 9 miles (14 km)
Ceiling: unknown
Clouds: missing
Present Weather: automated observation with no human augmentation;
there may or may not be significant weather present at this time
KX60 171555Z AUTO 26009KT 9SM 15/09 A3031 RMK A01

Conditions at: KX60 observed 17 January 2018  15:35 UTC
Temperature: 14.0°C (57°F)
Dewpoint: 9.0°C (48°F) [RH = 72%]
Pressure (altimeter): 30.31 inches Hg (1026.5 mb)
Winds: from the W (280 degrees) at 9 MPH (8 knots; 4.2 m/s)
Visibility: 9 miles (14 km)
Ceiling: unknown
Clouds: missing
Present Weather: automated observation with no human augmentation;
there may or may not be significant weather present at this time
KX60 171535Z AUTO 28008KT 9SM 14/09 A3031 RMK A01

Conditions at: KX60 observed 17 January 2018  15:15 UTC
Temperature: 13.0°C (55°F)
Dewpoint: 9.0°C (48°F) [RH = 77%]
Pressure (altimeter): 30.31 inches Hg (1026.5 mb)
Winds: from the WNW (290 degrees) at 8 MPH (7 knots; 3.6 m/s)
Visibility: 9 miles (14 km)
Ceiling: unknown
Clouds: missing
Present Weather: automated observation with no human augmentation;
there may or may not be significant weather present at this time
KX60 171515Z AUTO 29007KT 9SM 13/09 A3031 RMK A01

Conditions at: KX60 observed 17 January 2018  14:55 UTC
Temperature: 11.0°C (52°F)
Dewpoint: 10.0°C (50°F) [RH = 94%]
Pressure (altimeter): 30.30 inches Hg (1026.2 mb)
Winds: calm
Visibility: 9 miles (14 km)
Ceiling: unknown
Clouds: missing
Present Weather: automated observation with no human augmentation;
there may or may not be significant weather present at this time
KX60 171455Z AUTO 00000KT 9SM 11/10 A3030 RMK A01

Conditions at: KX60 observed 17 January 2018  14:35 UTC
Temperature: 9.0°C (48°F)
Dewpoint: 9.0°C (48°F) [RH = 100%]
Pressure (altimeter): 30.31 inches Hg (1026.5 mb)
Winds: calm
Visibility: 8 miles (13 km)
Ceiling: unknown
Clouds: missing
Present Weather: automated observation with no human augmentation;
there may or may not be significant weather present at this time
KX60 171435Z AUTO 00000KT 8SM 09/09 A3031 RMK A01

Conditions at: KX60 observed 17 January 2018  14:15 UTC
Temperature: 9.0°C (48°F)
Dewpoint: 9.0°C (48°F) [RH = 100%]
Pressure (altimeter): 30.31 inches Hg (1026.5 mb)
Winds: from the NW (310 degrees) at 8 MPH (7 knots; 3.6 m/s)
Visibility: 8 miles (13 km)
Ceiling: unknown
Clouds: missing
Present Weather: automated observation with no human augmentation;
there may or may not be significant weather present at this time
KX60 171415Z AUTO 31007KT 8SM 09/09 A3031 RMK A01

Conditions at: KX60 observed 17 January 2018  13:55 UTC
Temperature: 7.0°C (45°F)
Dewpoint: 7.0°C (45°F) [RH = 100%]
Pressure (altimeter): 30.30 inches Hg (1026.2 mb)
Winds: from the WNW (300 degrees) at 8 MPH (7 knots; 3.6 m/s)
Visibility: 7 miles (11 km)
Ceiling: unknown
Clouds: missing
Present Weather: automated observation with no human augmentation;
there may or may not be significant weather present at this time
KX60 171355Z AUTO 30007KT 7SM 07/07 A3030 RMK A01

Conditions at: KX60 observed 17 January 2018  13:35 UTC
Temperature: 6.0°C (43°F)
Dewpoint: 6.0°C (43°F) [RH = 100%]
Pressure (altimeter): 30.28 inches Hg (1025.5 mb)
Winds: calm
Visibility: 3 miles (5 km)
Ceiling: unknown
Clouds: missing
Present Weather: BR  (mist)
KX60 171335Z AUTO 00000KT 3SM BR 06/06 A3028 RMK A01

Conditions at: KX60 observed 17 January 2018  13:15 UTC
Temperature: 4.0°C (39°F)
Dewpoint: 4.0°C (39°F) [RH = 100%]
Pressure (altimeter): 30.28 inches Hg (1025.5 mb)
Winds: calm
Visibility: 1.50 miles (2.41 km)
Ceiling: unknown
Clouds: missing
Present Weather: BR  (mist)
KX60 171315Z AUTO 00000KT 1 1/2SM BR 04/04 A3028 RMK A01

Conditions at: KX60 observed 17 January 2018  12:55 UTC
Temperature: 3.0°C (37°F)
Dewpoint: 3.0°C (37°F) [RH = 100%]
Pressure (altimeter): 30.26 inches Hg (1024.8 mb)
Winds: calm
Visibility: 2.50 miles (4.02 km)
Ceiling: unknown
Clouds: missing
Present Weather: BR  (mist)
KX60 171255Z AUTO 00000KT 2 1/2SM BR 03/03 A3026 RMK A01

Conditions at: KX60 observed 17 January 2018  12:35 UTC
Temperature: 3.0°C (37°F)
Dewpoint: 3.0°C (37°F) [RH = 100%]
Pressure (altimeter): 30.26 inches Hg (1024.8 mb)
Winds: calm
Visibility: 6 miles (10 km)
Ceiling: unknown
Clouds: missing
Present Weather: BR  (mist)
KX60 171235Z AUTO 00000KT 6SM BR 03/03 A3026 RMK A01

Conditions at: KX60 observed 17 January 2018  12:15 UTC
Temperature: 3.0°C (37°F)
Dewpoint: 3.0°C (37°F) [RH = 100%]
Pressure (altimeter): 30.26 inches Hg (1024.8 mb)
Winds: calm
Visibility: 1.50 miles (2.41 km)
Ceiling: unknown
Clouds: missing
Present Weather: BR  (mist)
KX60 171215Z AUTO 00000KT 1 1/2SM BR 03/03 A3026 RMK A01

Conditions at: KX60 observed 17 January 2018  11:55 UTC
Temperature: 3.0°C (37°F)
Dewpoint: 3.0°C (37°F) [RH = 100%]
Pressure (altimeter): 30.26 inches Hg (1024.8 mb)
Winds: calm
Visibility: 0.25 miles (0.40 km)
Ceiling: unknown
Clouds: missing
Present Weather: FG  (fog)
KX60 171155Z AUTO 00000KT M1/4SM FG 03/03 A3026 RMK A01

Conditions at: KX60 observed 17 January 2018  11:35 UTC
Temperature: 3.0°C (37°F)
Dewpoint: 3.0°C (37°F) [RH = 100%]
Pressure (altimeter): 30.26 inches Hg (1024.8 mb)
Winds: calm
Visibility: 0.25 miles (0.40 km)
Ceiling: unknown
Clouds: missing
Present Weather: FG  (fog)
KX60 171135Z AUTO 00000KT 1/4SM FG 03/03 A3026 RMK A01

Conditions at: KX60 observed 17 January 2018  11:15 UTC
Temperature: 3.0°C (37°F)
Dewpoint: 3.0°C (37°F) [RH = 100%]
Pressure (altimeter): 30.26 inches Hg (1024.8 mb)
Winds: calm
Visibility: 0.75 miles (1.21 km)
Ceiling: unknown
Clouds: missing
Present Weather: BR  (mist)
KX60 171115Z AUTO 00000KT 3/4SM BR 03/03 A3026 RMK A01

Conditions at: KX60 observed 17 January 2018  10:55 UTC
Temperature: 4.0°C (39°F)
Dewpoint: 3.0°C (37°F) [RH = 93%]
Pressure (altimeter): 30.26 inches Hg (1024.8 mb)
Winds: calm
Visibility: 1.00 miles (1.61 km)
Ceiling: unknown
Clouds: missing
Present Weather: BR  (mist)
KX60 171055Z AUTO 00000KT 1SM BR 04/03 A3026 RMK A01

Conditions at: KX60 observed 17 January 2018  10:35 UTC
Temperature: 4.0°C (39°F)
Dewpoint: 3.0°C (37°F) [RH = 93%]
Pressure (altimeter): 30.26 inches Hg (1024.8 mb)
Winds: calm
Visibility: 1.50 miles (2.41 km)
Ceiling: unknown
Clouds: missing
Present Weather: BR  (mist)
KX60 171035Z AUTO 00000KT 1 1/2SM BR 04/03 A3026 RMK A01

Conditions at: KX60 observed 17 January 2018  10:15 UTC
Temperature: 4.0°C (39°F)
Dewpoint: 4.0°C (39°F) [RH = 100%]
Pressure (altimeter): 30.26 inches Hg (1024.8 mb)
Winds: calm
Visibility: 3 miles (5 km)
Ceiling: unknown
Clouds: missing
Present Weather: BR  (mist)
KX60 171015Z AUTO 00000KT 3SM BR 04/04 A3026 RMK A01

Conditions at: KX60 observed 17 January 2018  09:55 UTC
Temperature: 4.0°C (39°F)
Dewpoint: 4.0°C (39°F) [RH = 100%]
Pressure (altimeter): 30.26 inches Hg (1024.8 mb)
Winds: calm
Visibility: 1.50 miles (2.41 km)
Ceiling: unknown
Clouds: missing
Present Weather: BR  (mist)
KX60 170955Z AUTO 00000KT 1 1/2SM BR 04/04 A3026 RMK A01

Conditions at: KX60 observed 17 January 2018  09:35 UTC
Temperature: 4.0°C (39°F)
Dewpoint: 4.0°C (39°F) [RH = 100%]
Pressure (altimeter): 30.26 inches Hg (1024.8 mb)
Winds: calm
Visibility: 5 miles (8 km)
Ceiling: unknown
Clouds: missing
Present Weather: BR  (mist)
KX60 170935Z AUTO 00000KT 5SM BR 04/04 A3026 RMK A01

Conditions at: KX60 observed 17 January 2018  09:15 UTC
Temperature: 4.0°C (39°F)
Dewpoint: 4.0°C (39°F) [RH = 100%]
Pressure (altimeter): 30.27 inches Hg (1025.1 mb)
Winds: calm
Visibility: 3 miles (5 km)
Ceiling: unknown
Clouds: missing
Present Weather: BR  (mist)
KX60 170915Z AUTO 00000KT 3SM BR 04/04 A3027 RMK A01

Conditions at: KX60 observed 17 January 2018  08:55 UTC
Temperature: 5.0°C (41°F)
Dewpoint: 4.0°C (39°F) [RH = 93%]
Pressure (altimeter): 30.26 inches Hg (1024.8 mb)
Winds: calm
Visibility: 9 miles (14 km)
Ceiling: unknown
Clouds: missing
Present Weather: automated observation with no human augmentation;
there may or may not be significant weather present at this time
KX60 170855Z AUTO 00000KT 9SM 05/04 A3026 RMK A01

Conditions at: KX60 observed 17 January 2018  08:35 UTC
Temperature: 5.0°C (41°F)
Dewpoint: 5.0°C (41°F) [RH = 100%]
Pressure (altimeter): 30.27 inches Hg (1025.1 mb)
Winds: calm
Visibility: 8 miles (13 km)
Ceiling: unknown
Clouds: missing
Present Weather: automated observation with no human augmentation;
there may or may not be significant weather present at this time
KX60 170835Z AUTO 00000KT 8SM 05/05 A3027 RMK A01

Conditions at: KX60 observed 17 January 2018  08:15 UTC
Temperature: 5.0°C (41°F)
Dewpoint: 5.0°C (41°F) [RH = 100%]
Pressure (altimeter): 30.26 inches Hg (1024.8 mb)
Winds: calm
Visibility: 7 miles (11 km)
Ceiling: unknown
Clouds: missing
Present Weather: automated observation with no human augmentation;
there may or may not be significant weather present at this time
KX60 170815Z AUTO 00000KT 7SM 05/05 A3026 RMK A01

Conditions at: KX60 observed 17 January 2018  07:55 UTC
Temperature: 5.0°C (41°F)
Dewpoint: 5.0°C (41°F) [RH = 100%]
Pressure (altimeter): 30.27 inches Hg (1025.1 mb)
Winds: calm
Visibility: 10 or more miles (16+ km)
Ceiling: unknown
Clouds: missing
Present Weather: automated observation with no human augmentation;
there may or may not be significant weather present at this time
KX60 170755Z AUTO 00000KT 10SM 05/05 A3027 RMK A01

Conditions at: KX60 observed 17 January 2018  07:35 UTC
Temperature: 6.0°C (43°F)
Dewpoint: 5.0°C (41°F) [RH = 93%]
Pressure (altimeter): 30.28 inches Hg (1025.5 mb)
Winds: calm
Visibility: 8 miles (13 km)
Ceiling: unknown
Clouds: missing
Present Weather: automated observation with no human augmentation;
there may or may not be significant weather present at this time
KX60 170735Z AUTO 00000KT 8SM 06/05 A3028 RMK A01

Conditions at: KX60 observed 17 January 2018  07:15 UTC
Temperature: 6.0°C (43°F)
Dewpoint: 5.0°C (41°F) [RH = 93%]
Pressure (altimeter): 30.28 inches Hg (1025.5 mb)
Winds: calm
Visibility: 10 or more miles (16+ km)
Ceiling: unknown
Clouds: missing
Present Weather: automated observation with no human augmentation;
there may or may not be significant weather present at this time
KX60 170715Z AUTO 00000KT 10SM 06/05 A3028 RMK A01

Conditions at: KX60 observed 17 January 2018  06:55 UTC
Temperature: 6.0°C (43°F)
Dewpoint: 5.0°C (41°F) [RH = 93%]
Pressure (altimeter): 30.28 inches Hg (1025.5 mb)
Winds: calm
Visibility: 1.75 miles (2.82 km)
Ceiling: unknown
Clouds: missing
Present Weather: BR  (mist)
KX60 170655Z AUTO 00000KT 1 3/4SM BR 06/05 A3028 RMK A01

Conditions at: KX60 observed 17 January 2018  06:35 UTC
Temperature: 6.0°C (43°F)
Dewpoint: 6.0°C (43°F) [RH = 100%]
Pressure (altimeter): 30.28 inches Hg (1025.5 mb)
Winds: calm
Visibility: 7 miles (11 km)
Ceiling: unknown
Clouds: missing
Present Weather: automated observation with no human augmentation;
there may or may not be significant weather present at this time
KX60 170635Z AUTO 00000KT 7SM 06/06 A3028 RMK A01

Conditions at: KX60 observed 17 January 2018  06:15 UTC
Temperature: 7.0°C (45°F)
Dewpoint: 6.0°C (43°F) [RH = 93%]
Pressure (altimeter): 30.28 inches Hg (1025.5 mb)
Winds: calm
Visibility: 5 miles (8 km)
Ceiling: unknown
Clouds: missing
Present Weather: BR  (mist)
KX60 170615Z AUTO 00000KT 5SM BR 07/06 A3028 RMK A01

Conditions at: KX60 observed 17 January 2018  05:55 UTC
Temperature: 7.0°C (45°F)
Dewpoint: 6.0°C (43°F) [RH = 93%]
Pressure (altimeter): 30.29 inches Hg (1025.8 mb)
Winds: calm
Visibility: 10 or more miles (16+ km)
Ceiling: unknown
Clouds: missing
Present Weather: automated observation with no human augmentation;
there may or may not be significant weather present at this time
KX60 170555Z AUTO 00000KT 10SM 07/06 A3029 RMK A01

Conditions at: KX60 observed 17 January 2018  05:35 UTC
Temperature: 7.0°C (45°F)
Dewpoint: 6.0°C (43°F) [RH = 93%]
Pressure (altimeter): 30.29 inches Hg (1025.8 mb)
Winds: calm
Visibility: 10 or more miles (16+ km)
Ceiling: unknown
Clouds: missing
Present Weather: automated observation with no human augmentation;
there may or may not be significant weather present at this time
KX60 170535Z AUTO 00000KT 10SM 07/06 A3029 RMK A01

Conditions at: KX60 observed 17 January 2018  05:15 UTC
Temperature: 7.0°C (45°F)
Dewpoint: 6.0°C (43°F) [RH = 93%]
Pressure (altimeter): 30.30 inches Hg (1026.2 mb)
Winds: calm
Visibility: 9 miles (14 km)
Ceiling: unknown
Clouds: missing
Present Weather: automated observation with no human augmentation;
there may or may not be significant weather present at this time
KX60 170515Z AUTO 00000KT 9SM 07/06 A3030 RMK A01

Conditions at: KX60 observed 17 January 2018  04:55 UTC
Temperature: 7.0°C (45°F)
Dewpoint: 7.0°C (45°F) [RH = 100%]
Pressure (altimeter): 30.31 inches Hg (1026.5 mb)
Winds: calm
Visibility: 9 miles (14 km)
Ceiling: unknown
Clouds: missing
Present Weather: automated observation with no human augmentation;
there may or may not be significant weather present at this time
KX60 170455Z AUTO 00000KT 9SM 07/07 A3031 RMK A01

Conditions at: KX60 observed 17 January 2018  04:35 UTC
Temperature: 7.0°C (45°F)
Dewpoint: 7.0°C (45°F) [RH = 100%]
Pressure (altimeter): 30.31 inches Hg (1026.5 mb)
Winds: calm
Visibility: 8 miles (13 km)
Ceiling: unknown
Clouds: missing
Present Weather: automated observation with no human augmentation;
there may or may not be significant weather present at this time
KX60 170435Z AUTO 00000KT 8SM 07/07 A3031 RMK A01

Conditions at: KX60 observed 17 January 2018  04:15 UTC
Temperature: 8.0°C (46°F)
Dewpoint: 7.0°C (45°F) [RH = 93%]
Pressure (altimeter): 30.32 inches Hg (1026.8 mb)
Winds: calm
Visibility: 10 or more miles (16+ km)
Ceiling: unknown
Clouds: missing
Present Weather: automated observation with no human augmentation;
there may or may not be significant weather present at this time
KX60 170415Z AUTO 00000KT 10SM 08/07 A3032 RMK A01

Conditions at: KX60 observed 17 January 2018  03:55 UTC
Temperature: 8.0°C (46°F)
Dewpoint: 7.0°C (45°F) [RH = 93%]
Pressure (altimeter): 30.33 inches Hg (1027.2 mb)
Winds: calm
Visibility: 9 miles (14 km)
Ceiling: unknown
Clouds: missing
Present Weather: automated observation with no human augmentation;
there may or may not be significant weather present at this time
KX60 170355Z AUTO 00000KT 9SM 08/07 A3033 RMK A01

Conditions at: KX60 observed 17 January 2018  03:35 UTC
Temperature: 8.0°C (46°F)
Dewpoint: 7.0°C (45°F) [RH = 93%]
Pressure (altimeter): 30.33 inches Hg (1027.2 mb)
Winds: calm
Visibility: 9 miles (14 km)
Ceiling: unknown
Clouds: missing
Present Weather: automated observation with no human augmentation;
there may or may not be significant weather present at this time
KX60 170335Z AUTO 00000KT 9SM 08/07 A3033 RMK A01

Conditions at: KX60 observed 17 January 2018  03:15 UTC
Temperature: 8.0°C (46°F)
Dewpoint: 7.0°C (45°F) [RH = 93%]
Pressure (altimeter): 30.32 inches Hg (1026.8 mb)
Winds: calm
Visibility: 10 or more miles (16+ km)
Ceiling: unknown
Clouds: missing
Present Weather: automated observation with no human augmentation;
there may or may not be significant weather present at this time
KX60 170315Z AUTO 00000KT 10SM 08/07 A3032 RMK A01

Conditions at: KX60 observed 17 January 2018  02:55 UTC
Temperature: 9.0°C (48°F)
Dewpoint: 7.0°C (45°F) [RH = 87%]
Pressure (altimeter): 30.32 inches Hg (1026.8 mb)
Winds: calm
Visibility: 9 miles (14 km)
Ceiling: unknown
Clouds: missing
Present Weather: automated observation with no human augmentation;
there may or may not be significant weather present at this time
KX60 170255Z AUTO 00000KT 9SM 09/07 A3032 RMK A01

Conditions at: KX60 observed 17 January 2018  02:35 UTC
Temperature: 9.0°C (48°F)
Dewpoint: 7.0°C (45°F) [RH = 87%]
Pressure (altimeter): 30.32 inches Hg (1026.8 mb)
Winds: calm
Visibility: 10 or more miles (16+ km)
Ceiling: unknown
Clouds: missing
Present Weather: automated observation with no human augmentation;
there may or may not be significant weather present at this time
KX60 170235Z AUTO 00000KT 10SM 09/07 A3032 RMK A01

Conditions at: KX60 observed 17 January 2018  02:15 UTC
Temperature: 9.0°C (48°F)
Dewpoint: 8.0°C (46°F) [RH = 93%]
Pressure (altimeter): 30.32 inches Hg (1026.8 mb)
Winds: calm
Visibility: 10 or more miles (16+ km)
Ceiling: unknown
Clouds: missing
Present Weather: automated observation with no human augmentation;
there may or may not be significant weather present at this time
KX60 170215Z AUTO 00000KT 10SM 09/08 A3032 RMK A01

Conditions at: KX60 observed 17 January 2018  01:55 UTC
Temperature: 10.0°C (50°F)
Dewpoint: 8.0°C (46°F) [RH = 87%]
Pressure (altimeter): 30.32 inches Hg (1026.8 mb)
Winds: calm
Visibility: 10 or more miles (16+ km)
Ceiling: unknown
Clouds: missing
Present Weather: automated observation with no human augmentation;
there may or may not be significant weather present at this time
KX60 170155Z AUTO 00000KT 10SM 10/08 A3032 RMK A01

Conditions at: KX60 observed 17 January 2018  01:35 UTC
Temperature: 10.0°C (50°F)
Dewpoint: 8.0°C (46°F) [RH = 87%]
Pressure (altimeter): 30.31 inches Hg (1026.5 mb)
Winds: calm
Visibility: 10 or more miles (16+ km)
Ceiling: unknown
Clouds: missing
Present Weather: automated observation with no human augmentation;
there may or may not be significant weather present at this time
KX60 170135Z AUTO 00000KT 10SM 10/08 A3031 RMK A01

Conditions at: KX60 observed 17 January 2018  01:15 UTC
Temperature: 10.0°C (50°F)
Dewpoint: 8.0°C (46°F) [RH = 87%]
Pressure (altimeter): 30.31 inches Hg (1026.5 mb)
Winds: calm
Visibility: 10 or more miles (16+ km)
Ceiling: unknown
Clouds: missing
Present Weather: automated observation with no human augmentation;
there may or may not be significant weather present at this time
KX60 170115Z AUTO 00000KT 10SM 10/08 A3031 RMK A01

Conditions at: KX60 observed 17 January 2018  00:55 UTC
Temperature: 11.0°C (52°F)
Dewpoint: 8.0°C (46°F) [RH = 82%]
Pressure (altimeter): 30.31 inches Hg (1026.5 mb)
Winds: calm
Visibility: 10 or more miles (16+ km)
Ceiling: unknown
Clouds: missing
Present Weather: automated observation with no human augmentation;
there may or may not be significant weather present at this time
KX60 170055Z AUTO 00000KT 10SM 11/08 A3031 RMK A01

Conditions at: KX60 observed 17 January 2018  00:35 UTC
Temperature: 11.0°C (52°F)
Dewpoint: 9.0°C (48°F) [RH = 87%]
Pressure (altimeter): 30.30 inches Hg (1026.2 mb)
Winds: calm
Visibility: 10 or more miles (16+ km)
Ceiling: unknown
Clouds: missing
Present Weather: automated observation with no human augmentation;
there may or may not be significant weather present at this time
KX60 170035Z AUTO 00000KT 10SM 11/09 A3030 RMK A01

Conditions at: KX60 observed 17 January 2018  00:15 UTC
Temperature: 12.0°C (54°F)
Dewpoint: 9.0°C (48°F) [RH = 82%]
Pressure (altimeter): 30.30 inches Hg (1026.2 mb)
Winds: calm
Visibility: 10 or more miles (16+ km)
Ceiling: unknown
Clouds: missing
Present Weather: automated observation with no human augmentation;
there may or may not be significant weather present at this time
KX60 170015Z AUTO 00000KT 10SM 12/09 A3030 RMK A01

Conditions at: KX60 observed 16 January 2018  23:55 UTC
Temperature: 13.0°C (55°F)
Dewpoint: 8.0°C (46°F) [RH = 72%]
Pressure (altimeter): 30.29 inches Hg (1025.8 mb)
Winds: calm
Visibility: 10 or more miles (16+ km)
Ceiling: unknown
Clouds: missing
Present Weather: automated observation with no human augmentation;
there may or may not be significant weather present at this time
KX60 162355Z AUTO 00000KT 10SM 13/08 A3029 RMK A01

Conditions at: KX60 observed 16 January 2018  23:35 UTC
Temperature: 13.0°C (55°F)
Dewpoint: 9.0°C (48°F) [RH = 77%]
Pressure (altimeter): 30.29 inches Hg (1025.8 mb)
Winds: calm
Visibility: 10 or more miles (16+ km)
Ceiling: unknown
Clouds: missing
Present Weather: automated observation with no human augmentation;
there may or may not be significant weather present at this time
KX60 162335Z AUTO 00000KT 10SM 13/09 A3029 RMK A01

Conditions at: KX60 observed 16 January 2018  23:15 UTC
Temperature: 16.0°C (61°F)
Dewpoint: 8.0°C (46°F) [RH = 59%]
Pressure (altimeter): 30.29 inches Hg (1025.8 mb)
Winds: calm
Visibility: 9 miles (14 km)
Ceiling: at least 12,000 feet AGL
Clouds: sky clear below 12,000 feet AGL
Present Weather: automated observation with no human augmentation;
there may or may not be significant weather present at this time
KX60 162315Z AUTO 00000KT 9SM CLR 16/08 A3029 RMK A01

Conditions at: KX60 observed 16 January 2018  22:55 UTC
Temperature: 16.0°C (61°F)
Dewpoint: 9.0°C (48°F) [RH = 63%]
Pressure (altimeter): 30.30 inches Hg (1026.2 mb)
Winds: calm
Visibility: 10 or more miles (16+ km)
Ceiling: at least 12,000 feet AGL
Clouds: sky clear below 12,000 feet AGL
Present Weather: automated observation with no human augmentation;
there may or may not be significant weather present at this time
KX60 162255Z AUTO 00000KT 10SM CLR 16/09 A3030 RMK A01

Conditions at: KX60 observed 16 January 2018  22:35 UTC
Temperature: 19.0°C (66°F)
Dewpoint: 8.0°C (46°F) [RH = 49%]
Pressure (altimeter): 30.30 inches Hg (1026.2 mb)
Winds: calm
Visibility: 10 or more miles (16+ km)
Ceiling: at least 12,000 feet AGL
Clouds: sky clear below 12,000 feet AGL
Present Weather: automated observation with no human augmentation;
there may or may not be significant weather present at this time
KX60 162235Z AUTO 00000KT 10SM CLR 19/08 A3030 RMK A01

Conditions at: KX60 observed 16 January 2018  22:15 UTC
Temperature: 20.0°C (68°F)
Dewpoint: 7.0°C (45°F) [RH = 43%]
Pressure (altimeter): 30.30 inches Hg (1026.2 mb)
Winds: calm
Visibility: 9 miles (14 km)
Ceiling: at least 12,000 feet AGL
Clouds: sky clear below 12,000 feet AGL
Present Weather: automated observation with no human augmentation;
there may or may not be significant weather present at this time
KX60 162215Z AUTO 00000KT 9SM CLR 20/07 A3030 RMK A01

Conditions at: KX60 observed 16 January 2018  21:55 UTC
Temperature: 21.0°C (70°F)
Dewpoint: 8.0°C (46°F) [RH = 43%]
Pressure (altimeter): 30.30 inches Hg (1026.2 mb)
Winds: calm
Visibility: 9 miles (14 km)
Ceiling: at least 12,000 feet AGL
Clouds: sky clear below 12,000 feet AGL
Present Weather: automated observation with no human augmentation;
there may or may not be significant weather present at this time
KX60 162155Z AUTO 00000KT 9SM CLR 21/08 A3030 RMK A01

Conditions at: KX60 observed 16 January 2018  21:35 UTC
Temperature: 21.0°C (70°F)
Dewpoint: 8.0°C (46°F) [RH = 43%]
Pressure (altimeter): 30.30 inches Hg (1026.2 mb)
Winds: calm
Visibility: 9 miles (14 km)
Ceiling: at least 12,000 feet AGL
Clouds: sky clear below 12,000 feet AGL
Present Weather: automated observation with no human augmentation;
there may or may not be significant weather present at this time
KX60 162135Z AUTO 00000KT 9SM CLR 21/08 A3030 RMK A01

Conditions at: KX60 observed 16 January 2018  21:15 UTC
Temperature: 21.0°C (70°F)
Dewpoint: 8.0°C (46°F) [RH = 43%]
Pressure (altimeter): 30.31 inches Hg (1026.5 mb)
Winds: variable direction winds at 3 MPH (3 knots; 1.6 m/s)
Visibility: 10 or more miles (16+ km)
Ceiling: at least 12,000 feet AGL
Clouds: sky clear below 12,000 feet AGL
Present Weather: automated observation with no human augmentation;
there may or may not be significant weather present at this time
KX60 162115Z AUTO VRB03KT 10SM CLR 21/08 A3031 RMK A01

Conditions at: KX60 observed 16 January 2018  20:55 UTC
Temperature: 21.0°C (70°F)
Dewpoint: 8.0°C (46°F) [RH = 43%]
Pressure (altimeter): 30.31 inches Hg (1026.5 mb)
Winds: from the NNW (330 degrees) at 6 MPH (5 knots; 2.6 m/s)
Visibility: 9 miles (14 km)
Ceiling: at least 12,000 feet AGL
Clouds: sky clear below 12,000 feet AGL
Present Weather: automated observation with no human augmentation;
there may or may not be significant weather present at this time
KX60 162055Z AUTO 33005KT 9SM CLR 21/08 A3031 RMK A01

Conditions at: KX60 observed 16 January 2018  20:35 UTC
Temperature: 21.0°C (70°F)
Dewpoint: 8.0°C (46°F) [RH = 43%]
Pressure (altimeter): 30.30 inches Hg (1026.2 mb)
Winds: variable direction winds at 5 MPH (4 knots; 2.1 m/s)
Visibility: 10 or more miles (16+ km)
Ceiling: at least 12,000 feet AGL
Clouds: sky clear below 12,000 feet AGL
Present Weather: automated observation with no human augmentation;
there may or may not be significant weather present at this time
KX60 162035Z AUTO VRB04KT 10SM CLR 21/08 A3030 RMK A01

Conditions at: KX60 observed 16 January 2018  20:15 UTC
Temperature: 22.0°C (72°F)
Dewpoint: 9.0°C (48°F) [RH = 43%]
Pressure (altimeter): 30.31 inches Hg (1026.5 mb)
Winds: from the NNE (30 degrees) at 7 MPH (6 knots; 3.1 m/s)
Visibility: 10 or more miles (16+ km)
Ceiling: at least 12,000 feet AGL
Clouds: few clouds at 5000 feet AGL
few clouds at 5500 feet AGL
Present Weather: automated observation with no human augmentation;
there may or may not be significant weather present at this time
KX60 162015Z AUTO 03006KT 10SM FEW050 FEW055 22/09 A3031 RMK A01

Conditions at: KX60 observed 16 January 2018  19:55 UTC
Temperature: 21.0°C (70°F)
Dewpoint: 8.0°C (46°F) [RH = 43%]
Pressure (altimeter): 30.32 inches Hg (1026.8 mb)
Winds: calm
Visibility: 9 miles (14 km)
Ceiling: at least 12,000 feet AGL
Clouds: sky clear below 12,000 feet AGL
Present Weather: automated observation with no human augmentation;
there may or may not be significant weather present at this time
KX60 161955Z AUTO 00000KT 9SM CLR 21/08 A3032 RMK A01

Conditions at: KX60 observed 16 January 2018  19:35 UTC
Temperature: 21.0°C (70°F)
Dewpoint: 9.0°C (48°F) [RH = 46%]
Pressure (altimeter): 30.32 inches Hg (1026.8 mb)
Winds: from the NNW (340 degrees) at 7 MPH (6 knots; 3.1 m/s)
Visibility: 10 or more miles (16+ km)
Ceiling: at least 12,000 feet AGL
Clouds: sky clear below 12,000 feet AGL
Present Weather: automated observation with no human augmentation;
there may or may not be significant weather present at this time
KX60 161935Z AUTO 34006KT 10SM CLR 21/09 A3032 RMK A01

Conditions at: KX60 observed 16 January 2018  19:15 UTC
Temperature: 21.0°C (70°F)
Dewpoint: 9.0°C (48°F) [RH = 46%]
Pressure (altimeter): 30.33 inches Hg (1027.2 mb)
Winds: from the N (10 degrees) at 6 MPH (5 knots; 2.6 m/s)
Visibility: 9 miles (14 km)
Ceiling: at least 12,000 feet AGL
Clouds: sky clear below 12,000 feet AGL
Present Weather: automated observation with no human augmentation;
there may or may not be significant weather present at this time
KX60 161915Z AUTO 01005KT 9SM CLR 21/09 A3033 RMK A01

Conditions at: KX60 observed 16 January 2018  18:55 UTC
Temperature: 21.0°C (70°F)
Dewpoint: 10.0°C (50°F) [RH = 49%]
Pressure (altimeter): 30.33 inches Hg (1027.2 mb)
Winds: from the NNW (330 degrees) at 6 MPH (5 knots; 2.6 m/s)
gusting to 12 MPH (10 knots; 5.2 m/s)
Visibility: 9 miles (14 km)
Ceiling: at least 12,000 feet AGL
Clouds: scattered clouds at 4200 feet AGL
Present Weather: automated observation with no human augmentation;
there may or may not be significant weather present at this time
KX60 161855Z AUTO 33005G10KT 9SM SCT042 21/10 A3033 RMK A01

Conditions at: KX60 observed 16 January 2018  18:35 UTC
Temperature: 20.0°C (68°F)
Dewpoint: 10.0°C (50°F) [RH = 53%]
Pressure (altimeter): 30.34 inches Hg (1027.5 mb)
Winds: from the N (350 degrees) at 8 MPH (7 knots; 3.6 m/s)
Visibility: 9 miles (14 km)
Ceiling: at least 12,000 feet AGL
Clouds: scattered clouds at 4100 feet AGL
Present Weather: automated observation with no human augmentation;
there may or may not be significant weather present at this time
KX60 161835Z AUTO 35007KT 9SM SCT041 20/10 A3034 RMK A01

Conditions at: KX60 observed 16 January 2018  18:15 UTC
Temperature: 20.0°C (68°F)
Dewpoint: 10.0°C (50°F) [RH = 53%]
Pressure (altimeter): 30.36 inches Hg (1028.2 mb)
Winds: from the NNW (330 degrees) at 5 MPH (4 knots; 2.1 m/s)
gusting to 12 MPH (10 knots; 5.2 m/s)
Visibility: 9 miles (14 km)
Ceiling: unknown
Clouds: missing
Present Weather: automated observation with no human augmentation;
there may or may not be significant weather present at this time
KX60 161815Z AUTO 33004G10KT 9SM 20/10 A3036 RMK A01

Conditions at: KX60 observed 16 January 2018  17:55 UTC
Temperature: 21.0°C (70°F)
Dewpoint: 10.0°C (50°F) [RH = 49%]
Pressure (altimeter): 30.36 inches Hg (1028.2 mb)
Winds: from the NE (40 degrees) at 6 MPH (5 knots; 2.6 m/s)
gusting to 15 MPH (13 knots; 6.8 m/s)
Visibility: 9 miles (14 km)
Ceiling: unknown
Clouds: missing
Present Weather: automated observation with no human augmentation;
there may or may not be significant weather present at this time
KX60 161755Z AUTO 04005G13KT 9SM 21/10 A3036 RMK A01

Conditions at: KX60 observed 16 January 2018  17:35 UTC
Temperature: 20.0°C (68°F)
Dewpoint: 10.0°C (50°F) [RH = 53%]
Pressure (altimeter): 30.37 inches Hg (1028.5 mb)
Winds: variable direction winds at 7 MPH (6 knots; 3.1 m/s)
Visibility: 9 miles (14 km)
Ceiling: unknown
Clouds: missing
Present Weather: automated observation with no human augmentation;
there may or may not be significant weather present at this time
KX60 161735Z AUTO VRB06KT 9SM 20/10 A3037 RMK A01

Conditions at: KX60 observed 16 January 2018  17:15 UTC
Temperature: 20.0°C (68°F)
Dewpoint: 10.0°C (50°F) [RH = 53%]
Pressure (altimeter): 30.39 inches Hg (1029.2 mb)
Winds: variable direction winds at 5 MPH (4 knots; 2.1 m/s)
Visibility: 10 or more miles (16+ km)
Ceiling: unknown
Clouds: missing
Present Weather: automated observation with no human augmentation;
there may or may not be significant weather present at this time
KX60 161715Z AUTO VRB04KT 10SM 20/10 A3039 RMK A01

Conditions at: KX60 observed 16 January 2018  16:55 UTC
Temperature: 19.0°C (66°F)
Dewpoint: 10.0°C (50°F) [RH = 56%]
Pressure (altimeter): 30.41 inches Hg (1029.9 mb)
Winds: from the N (350 degrees) at 5 MPH (4 knots; 2.1 m/s)
Visibility: 9 miles (14 km)
Ceiling: unknown
Clouds: missing
Present Weather: automated observation with no human augmentation;
there may or may not be significant weather present at this time
KX60 161655Z AUTO 35004KT 9SM 19/10 A3041 RMK A01

Conditions at: KX60 observed 16 January 2018  16:35 UTC
Temperature: 18.0°C (64°F)
Dewpoint: 9.0°C (48°F) [RH = 56%]
Pressure (altimeter): 30.41 inches Hg (1029.9 mb)
Winds: from the N (10 degrees) at 9 MPH (8 knots; 4.2 m/s)
Visibility: 10 or more miles (16+ km)
Ceiling: unknown
Clouds: missing
Present Weather: automated observation with no human augmentation;
there may or may not be significant weather present at this time
KX60 161635Z AUTO 01008KT 10SM 18/09 A3041 RMK A01

Conditions at: KX60 observed 16 January 2018  16:15 UTC
Temperature: 18.0°C (64°F)
Dewpoint: 9.0°C (48°F) [RH = 56%]
Pressure (altimeter): 30.42 inches Hg (1030.2 mb)
Winds: from the NNE (30 degrees) at 7 MPH (6 knots; 3.1 m/s)
Visibility: 10 or more miles (16+ km)
Ceiling: unknown
Clouds: missing
Present Weather: automated observation with no human augmentation;
there may or may not be significant weather present at this time
KX60 161615Z AUTO 03006KT 10SM 18/09 A3042 RMK A01

Conditions at: KX60 observed 16 January 2018  15:55 UTC
Temperature: 17.0°C (63°F)
Dewpoint: 9.0°C (48°F) [RH = 59%]
Pressure (altimeter): 30.42 inches Hg (1030.2 mb)
Winds: from the N (360 degrees) at 8 MPH (7 knots; 3.6 m/s)
Visibility: 9 miles (14 km)
Ceiling: unknown
Clouds: missing
Present Weather: automated observation with no human augmentation;
there may or may not be significant weather present at this time
KX60 161555Z AUTO 36007KT 9SM 17/09 A3042 RMK A01

Conditions at: KX60 observed 16 January 2018  15:35 UTC
Temperature: 15.0°C (59°F)
Dewpoint: 9.0°C (48°F) [RH = 67%]
Pressure (altimeter): 30.42 inches Hg (1030.2 mb)
Winds: from the N (10 degrees) at 7 MPH (6 knots; 3.1 m/s)
Visibility: 9 miles (14 km)
Ceiling: unknown
Clouds: missing
Present Weather: automated observation with no human augmentation;
there may or may not be significant weather present at this time
KX60 161535Z AUTO 01006KT 9SM 15/09 A3042 RMK A01

Conditions at: KX60 observed 16 January 2018  15:15 UTC
Temperature: 14.0°C (57°F)
Dewpoint: 8.0°C (46°F) [RH = 67%]
Pressure (altimeter): 30.42 inches Hg (1030.2 mb)
Winds: from the NNE (30 degrees) at 5 MPH (4 knots; 2.1 m/s)
Visibility: 9 miles (14 km)
Ceiling: unknown
Clouds: missing
Present Weather: automated observation with no human augmentation;
there may or may not be significant weather present at this time
KX60 161515Z AUTO 03004KT 9SM 14/08 A3042 RMK A01

Conditions at: KX60 observed 16 January 2018  14:55 UTC
Temperature: 13.0°C (55°F)
Dewpoint: 8.0°C (46°F) [RH = 72%]
Pressure (altimeter): 30.42 inches Hg (1030.2 mb)
Winds: variable direction winds at 6 MPH (5 knots; 2.6 m/s)
Visibility: 9 miles (14 km)
Ceiling: unknown
Clouds: missing
Present Weather: automated observation with no human augmentation;
there may or may not be significant weather present at this time
KX60 161455Z AUTO VRB05KT 9SM 13/08 A3042 RMK A01

Conditions at: KX60 observed 16 January 2018  14:35 UTC
Temperature: 11.0°C (52°F)
Dewpoint: 7.0°C (45°F) [RH = 76%]
Pressure (altimeter): 30.42 inches Hg (1030.2 mb)
Winds: from the N (10 degrees) at 6 MPH (5 knots; 2.6 m/s)
Visibility: 9 miles (14 km)
Ceiling: unknown
Clouds: missing
Present Weather: automated observation with no human augmentation;
there may or may not be significant weather present at this time
KX60 161435Z AUTO 01005KT 9SM 11/07 A3042 RMK A01

Conditions at: KX60 observed 16 January 2018  14:15 UTC
Temperature: 10.0°C (50°F)
Dewpoint: 7.0°C (45°F) [RH = 82%]
Pressure (altimeter): 30.42 inches Hg (1030.2 mb)
Winds: from the N (10 degrees) at 7 MPH (6 knots; 3.1 m/s)
Visibility: 9 miles (14 km)
Ceiling: unknown
Clouds: missing
Present Weather: automated observation with no human augmentation;
there may or may not be significant weather present at this time
KX60 161415Z AUTO 01006KT 9SM 10/07 A3042 RMK A01

Conditions at: KX60 observed 16 January 2018  13:55 UTC
Temperature: 8.0°C (46°F)
Dewpoint: 6.0°C (43°F) [RH = 87%]
Pressure (altimeter): 30.42 inches Hg (1030.2 mb)
Winds: from the NNE (20 degrees) at 6 MPH (5 knots; 2.6 m/s)
Visibility: 9 miles (14 km)
Ceiling: unknown
Clouds: missing
Present Weather: automated observation with no human augmentation;
there may or may not be significant weather present at this time
KX60 161355Z AUTO 02005KT 9SM 08/06 A3042 RMK A01

Conditions at: KX60 observed 16 January 2018  13:35 UTC
Temperature: 7.0°C (45°F)
Dewpoint: 5.0°C (41°F) [RH = 87%]
Pressure (altimeter): 30.42 inches Hg (1030.2 mb)
Winds: variable direction winds at 5 MPH (4 knots; 2.1 m/s)
Visibility: 8 miles (13 km)
Ceiling: unknown
Clouds: missing
Present Weather: automated observation with no human augmentation;
there may or may not be significant weather present at this time
KX60 161335Z AUTO VRB04KT 8SM 07/05 A3042 RMK A01

Conditions at: KX60 observed 16 January 2018  13:15 UTC
Temperature: 5.0°C (41°F)
Dewpoint: 4.0°C (39°F) [RH = 93%]
Pressure (altimeter): 30.41 inches Hg (1029.9 mb)
Winds: calm
Visibility: 8 miles (13 km)
Ceiling: unknown
Clouds: missing
Present Weather: automated observation with no human augmentation;
there may or may not be significant weather present at this time
KX60 161315Z AUTO 00000KT 8SM 05/04 A3041 RMK A01

Conditions at: KX60 observed 16 January 2018  12:55 UTC
Temperature: 4.0°C (39°F)
Dewpoint: 4.0°C (39°F) [RH = 100%]
Pressure (altimeter): 30.41 inches Hg (1029.9 mb)
Winds: calm
Visibility: 7 miles (11 km)
Ceiling: unknown
Clouds: missing
Present Weather: automated observation with no human augmentation;
there may or may not be significant weather present at this time
KX60 161255Z AUTO 00000KT 7SM 04/04 A3041 RMK A01

Conditions at: KX60 observed 16 January 2018  12:35 UTC
Temperature: 4.0°C (39°F)
Dewpoint: 3.0°C (37°F) [RH = 93%]
Pressure (altimeter): 30.41 inches Hg (1029.9 mb)
Winds: calm
Visibility: 7 miles (11 km)
Ceiling: unknown
Clouds: missing
Present Weather: automated observation with no human augmentation;
there may or may not be significant weather present at this time
KX60 161235Z AUTO 00000KT 7SM 04/03 A3041 RMK A01

Conditions at: KX60 observed 16 January 2018  12:15 UTC
Temperature: 3.0°C (37°F)
Dewpoint: 2.0°C (36°F) [RH = 93%]
Pressure (altimeter): 30.40 inches Hg (1029.5 mb)
Winds: calm
Visibility: 8 miles (13 km)
Ceiling: unknown
Clouds: missing
Present Weather: automated observation with no human augmentation;
there may or may not be significant weather present at this time
KX60 161215Z AUTO 00000KT 8SM 03/02 A3040 RMK A01

Conditions at: KX60 observed 16 January 2018  11:55 UTC
Temperature: 4.0°C (39°F)
Dewpoint: 3.0°C (37°F) [RH = 93%]
Pressure (altimeter): 30.40 inches Hg (1029.5 mb)
Winds: calm
Visibility: 9 miles (14 km)
Ceiling: unknown
Clouds: missing
Present Weather: automated observation with no human augmentation;
there may or may not be significant weather present at this time
KX60 161155Z AUTO 00000KT 9SM 04/03 A3040 RMK A01

Conditions at: KX60 observed 16 January 2018  11:35 UTC
Temperature: 4.0°C (39°F)
Dewpoint: 3.0°C (37°F) [RH = 93%]
Pressure (altimeter): 30.40 inches Hg (1029.5 mb)
Winds: calm
Visibility: 10 or more miles (16+ km)
Ceiling: unknown
Clouds: missing
Present Weather: automated observation with no human augmentation;
there may or may not be significant weather present at this time
KX60 161135Z AUTO 00000KT 10SM 04/03 A3040 RMK A01

Conditions at: KX60 observed 16 January 2018  11:15 UTC
Temperature: 4.0°C (39°F)
Dewpoint: 2.0°C (36°F) [RH = 87%]
Pressure (altimeter): 30.40 inches Hg (1029.5 mb)
Winds: calm
Visibility: 10 or more miles (16+ km)
Ceiling: unknown
Clouds: missing
Present Weather: automated observation with no human augmentation;
there may or may not be significant weather present at this time
KX60 161115Z AUTO 00000KT 10SM 04/02 A3040 RMK A01

Conditions at: KX60 observed 16 January 2018  10:55 UTC
Temperature: 3.0°C (37°F)
Dewpoint: 2.0°C (36°F) [RH = 93%]
Pressure (altimeter): 30.39 inches Hg (1029.2 mb)
Winds: from the N (360 degrees) at 5 MPH (4 knots; 2.1 m/s)
Visibility: 10 or more miles (16+ km)
Ceiling: unknown
Clouds: missing
Present Weather: automated observation with no human augmentation;
there may or may not be significant weather present at this time
KX60 161055Z AUTO 36004KT 10SM 03/02 A3039 RMK A01

Conditions at: KX60 observed 16 January 2018  10:35 UTC
Temperature: 3.0°C (37°F)
Dewpoint: 2.0°C (36°F) [RH = 93%]
Pressure (altimeter): 30.39 inches Hg (1029.2 mb)
Winds: from the N (360 degrees) at 3 MPH (3 knots; 1.6 m/s)
Visibility: 10 or more miles (16+ km)
Ceiling: unknown
Clouds: missing
Present Weather: automated observation with no human augmentation;
there may or may not be significant weather present at this time
KX60 161035Z AUTO 36003KT 10SM 03/02 A3039 RMK A01

Conditions at: KX60 observed 16 January 2018  10:15 UTC
Temperature: 4.0°C (39°F)
Dewpoint: 2.0°C (36°F) [RH = 87%]
Pressure (altimeter): 30.39 inches Hg (1029.2 mb)
Winds: from the N (360 degrees) at 5 MPH (4 knots; 2.1 m/s)
Visibility: 10 or more miles (16+ km)
Ceiling: unknown
Clouds: missing
Present Weather: automated observation with no human augmentation;
there may or may not be significant weather present at this time
KX60 161015Z AUTO 36004KT 10SM 04/02 A3039 RMK A01

Conditions at: KX60 observed 16 January 2018  09:55 UTC
Temperature: 4.0°C (39°F)
Dewpoint: 2.0°C (36°F) [RH = 87%]
Pressure (altimeter): 30.39 inches Hg (1029.2 mb)
Winds: from the NNW (340 degrees) at 5 MPH (4 knots; 2.1 m/s)
Visibility: 10 or more miles (16+ km)
Ceiling: unknown
Clouds: missing
Present Weather: automated observation with no human augmentation;
there may or may not be significant weather present at this time
KX60 160955Z AUTO 34004KT 10SM 04/02 A3039 RMK A01

Conditions at: KX60 observed 16 January 2018  09:35 UTC
Temperature: 4.0°C (39°F)
Dewpoint: 2.0°C (36°F) [RH = 87%]
Pressure (altimeter): 30.39 inches Hg (1029.2 mb)
Winds: from the NNW (330 degrees) at 3 MPH (3 knots; 1.6 m/s)
Visibility: 10 or more miles (16+ km)
Ceiling: unknown
Clouds: missing
Present Weather: automated observation with no human augmentation;
there may or may not be significant weather present at this time
KX60 160935Z AUTO 33003KT 10SM 04/02 A3039 RMK A01

Conditions at: KX60 observed 16 January 2018  09:15 UTC
Temperature: 4.0°C (39°F)
Dewpoint: 2.0°C (36°F) [RH = 87%]
Pressure (altimeter): 30.39 inches Hg (1029.2 mb)
Winds: from the NNW (330 degrees) at 3 MPH (3 knots; 1.6 m/s)
Visibility: 10 or more miles (16+ km)
Ceiling: unknown
Clouds: missing
Present Weather: automated observation with no human augmentation;
there may or may not be significant weather present at this time
KX60 160915Z AUTO 33003KT 10SM 04/02 A3039 RMK A01

Conditions at: KX60 observed 16 January 2018  08:55 UTC
Temperature: 4.0°C (39°F)
Dewpoint: 2.0°C (36°F) [RH = 87%]
Pressure (altimeter): 30.39 inches Hg (1029.2 mb)
Winds: calm
Visibility: 10 or more miles (16+ km)
Ceiling: unknown
Clouds: missing
Present Weather: automated observation with no human augmentation;
there may or may not be significant weather present at this time
KX60 160855Z AUTO 00000KT 10SM 04/02 A3039 RMK A01

Conditions at: KX60 observed 16 January 2018  08:35 UTC
Temperature: 4.0°C (39°F)
Dewpoint: 2.0°C (36°F) [RH = 87%]
Pressure (altimeter): 30.38 inches Hg (1028.9 mb)
Winds: from the N (360 degrees) at 3 MPH (3 knots; 1.6 m/s)
Visibility: 10 or more miles (16+ km)
Ceiling: unknown
Clouds: missing
Present Weather: automated observation with no human augmentation;
there may or may not be significant weather present at this time
KX60 160835Z AUTO 36003KT 10SM 04/02 A3038 RMK A01

Conditions at: KX60 observed 16 January 2018  08:15 UTC
Temperature: 4.0°C (39°F)
Dewpoint: 2.0°C (36°F) [RH = 87%]
Pressure (altimeter): 30.38 inches Hg (1028.9 mb)
Winds: calm
Visibility: 10 or more miles (16+ km)
Ceiling: unknown
Clouds: missing
Present Weather: automated observation with no human augmentation;
there may or may not be significant weather present at this time
KX60 160815Z AUTO 00000KT 10SM 04/02 A3038 RMK A01

Conditions at: KX60 observed 16 January 2018  07:55 UTC
Temperature: 4.0°C (39°F)
Dewpoint: 2.0°C (36°F) [RH = 87%]
Pressure (altimeter): 30.38 inches Hg (1028.9 mb)
Winds: calm
Visibility: 10 or more miles (16+ km)
Ceiling: unknown
Clouds: missing
Present Weather: automated observation with no human augmentation;
there may or may not be significant weather present at this time
KX60 160755Z AUTO 00000KT 10SM 04/02 A3038 RMK A01

Conditions at: KX60 observed 16 January 2018  07:35 UTC
Temperature: 3.0°C (37°F)
Dewpoint: 2.0°C (36°F) [RH = 93%]
Pressure (altimeter): 30.38 inches Hg (1028.9 mb)
Winds: calm
Visibility: 10 or more miles (16+ km)
Ceiling: unknown
Clouds: missing
Present Weather: automated observation with no human augmentation;
there may or may not be significant weather present at this time
KX60 160735Z AUTO 00000KT 10SM 03/02 A3038 RMK A01

Conditions at: KX60 observed 16 January 2018  07:15 UTC
Temperature: 3.0°C (37°F)
Dewpoint: 1.0°C (34°F) [RH = 87%]
Pressure (altimeter): 30.38 inches Hg (1028.9 mb)
Winds: calm
Visibility: 10 or more miles (16+ km)
Ceiling: unknown
Clouds: missing
Present Weather: automated observation with no human augmentation;
there may or may not be significant weather present at this time
KX60 160715Z AUTO 00000KT 10SM 03/01 A3038 RMK A01

Conditions at: KX60 observed 16 January 2018  06:55 UTC
Temperature: 3.0°C (37°F)
Dewpoint: 1.0°C (34°F) [RH = 87%]
Pressure (altimeter): 30.39 inches Hg (1029.2 mb)
Winds: calm
Visibility: 10 or more miles (16+ km)
Ceiling: unknown
Clouds: missing
Present Weather: automated observation with no human augmentation;
there may or may not be significant weather present at this time
KX60 160655Z AUTO 00000KT 10SM 03/01 A3039 RMK A01

Conditions at: KX60 observed 16 January 2018  06:35 UTC
Temperature: 4.0°C (39°F)
Dewpoint: 1.0°C (34°F) [RH = 81%]
Pressure (altimeter): 30.39 inches Hg (1029.2 mb)
Winds: calm
Visibility: 10 or more miles (16+ km)
Ceiling: unknown
Clouds: missing
Present Weather: automated observation with no human augmentation;
there may or may not be significant weather present at this time
KX60 160635Z AUTO 00000KT 10SM 04/01 A3039 RMK A01

Conditions at: KX60 observed 16 January 2018  06:15 UTC
Temperature: 5.0°C (41°F)
Dewpoint: 1.0°C (34°F) [RH = 75%]
Pressure (altimeter): 30.39 inches Hg (1029.2 mb)
Winds: calm
Visibility: 10 or more miles (16+ km)
Ceiling: unknown
Clouds: missing
Present Weather: automated observation with no human augmentation;
there may or may not be significant weather present at this time
KX60 160615Z AUTO 00000KT 10SM 05/01 A3039 RMK A01

Conditions at: KX60 observed 16 January 2018  05:55 UTC
Temperature: 5.0°C (41°F)
Dewpoint: 1.0°C (34°F) [RH = 75%]
Pressure (altimeter): 30.39 inches Hg (1029.2 mb)
Winds: calm
Visibility: 10 or more miles (16+ km)
Ceiling: unknown
Clouds: missing
Present Weather: automated observation with no human augmentation;
there may or may not be significant weather present at this time
KX60 160555Z AUTO 00000KT 10SM 05/01 A3039 RMK A01

Conditions at: KX60 observed 16 January 2018  05:35 UTC
Temperature: 5.0°C (41°F)
Dewpoint: 1.0°C (34°F) [RH = 75%]
Pressure (altimeter): 30.39 inches Hg (1029.2 mb)
Winds: calm
Visibility: 10 or more miles (16+ km)
Ceiling: unknown
Clouds: missing
Present Weather: automated observation with no human augmentation;
there may or may not be significant weather present at this time
KX60 160535Z AUTO 00000KT 10SM 05/01 A3039 RMK A01

Conditions at: KX60 observed 16 January 2018  05:15 UTC
Temperature: 5.0°C (41°F)
Dewpoint: 1.0°C (34°F) [RH = 75%]
Pressure (altimeter): 30.40 inches Hg (1029.5 mb)
Winds: calm
Visibility: 10 or more miles (16+ km)
Ceiling: unknown
Clouds: missing
Present Weather: automated observation with no human augmentation;
there may or may not be significant weather present at this time
KX60 160515Z AUTO 00000KT 10SM 05/01 A3040 RMK A01

Conditions at: KX60 observed 16 January 2018  04:55 UTC
Temperature: 5.0°C (41°F)
Dewpoint: 1.0°C (34°F) [RH = 75%]
Pressure (altimeter): 30.40 inches Hg (1029.5 mb)
Winds: calm
Visibility: 10 or more miles (16+ km)
Ceiling: unknown
Clouds: missing
Present Weather: automated observation with no human augmentation;
there may or may not be significant weather present at this time
KX60 160455Z AUTO 00000KT 10SM 05/01 A3040 RMK A01

Conditions at: KX60 observed 16 January 2018  04:35 UTC
Temperature: 5.0°C (41°F)
Dewpoint: 1.0°C (34°F) [RH = 75%]
Pressure (altimeter): 30.41 inches Hg (1029.9 mb)
Winds: calm
Visibility: 10 or more miles (16+ km)
Ceiling: unknown
Clouds: missing
Present Weather: automated observation with no human augmentation;
there may or may not be significant weather present at this time
KX60 160435Z AUTO 00000KT 10SM 05/01 A3041 RMK A01

Conditions at: KX60 observed 16 January 2018  04:15 UTC
Temperature: 6.0°C (43°F)
Dewpoint: 1.0°C (34°F) [RH = 70%]
Pressure (altimeter): 30.42 inches Hg (1030.2 mb)
Winds: calm
Visibility: 10 or more miles (16+ km)
Ceiling: unknown
Clouds: missing
Present Weather: automated observation with no human augmentation;
there may or may not be significant weather present at this time
KX60 160415Z AUTO 00000KT 10SM 06/01 A3042 RMK A01

Conditions at: KX60 observed 16 January 2018  03:55 UTC
Temperature: 6.0°C (43°F)
Dewpoint: 1.0°C (34°F) [RH = 70%]
Pressure (altimeter): 30.42 inches Hg (1030.2 mb)
Winds: calm
Visibility: 10 or more miles (16+ km)
Ceiling: unknown
Clouds: missing
Present Weather: automated observation with no human augmentation;
there may or may not be significant weather present at this time
KX60 160355Z AUTO 00000KT 10SM 06/01 A3042 RMK A01

Conditions at: KX60 observed 16 January 2018  03:35 UTC
Temperature: 6.0°C (43°F)
Dewpoint: 1.0°C (34°F) [RH = 70%]
Pressure (altimeter): 30.42 inches Hg (1030.2 mb)
Winds: from the NE (40 degrees) at 3 MPH (3 knots; 1.6 m/s)
Visibility: 10 or more miles (16+ km)
Ceiling: unknown
Clouds: missing
Present Weather: automated observation with no human augmentation;
there may or may not be significant weather present at this time
KX60 160335Z AUTO 04003KT 10SM 06/01 A3042 RMK A01

Conditions at: KX60 observed 16 January 2018  03:15 UTC
Temperature: 7.0°C (45°F)
Dewpoint: 2.0°C (36°F) [RH = 70%]
Pressure (altimeter): 30.42 inches Hg (1030.2 mb)
Winds: from the NNE (30 degrees) at 3 MPH (3 knots; 1.6 m/s)
Visibility: 10 or more miles (16+ km)
Ceiling: unknown
Clouds: missing
Present Weather: automated observation with no human augmentation;
there may or may not be significant weather present at this time
KX60 160315Z AUTO 03003KT 10SM 07/02 A3042 RMK A01

Conditions at: KX60 observed 16 January 2018  02:55 UTC
Temperature: 7.0°C (45°F)
Dewpoint: 2.0°C (36°F) [RH = 70%]
Pressure (altimeter): 30.42 inches Hg (1030.2 mb)
Winds: from the NNE (30 degrees) at 5 MPH (4 knots; 2.1 m/s)
Visibility: 10 or more miles (16+ km)
Ceiling: unknown
Clouds: missing
Present Weather: automated observation with no human augmentation;
there may or may not be significant weather present at this time
KX60 160255Z AUTO 03004KT 10SM 07/02 A3042 RMK A01

Conditions at: KX60 observed 16 January 2018  02:35 UTC
Temperature: 7.0°C (45°F)
Dewpoint: 2.0°C (36°F) [RH = 70%]
Pressure (altimeter): 30.42 inches Hg (1030.2 mb)
Winds: from the NE (40 degrees) at 3 MPH (3 knots; 1.6 m/s)
Visibility: 10 or more miles (16+ km)
Ceiling: unknown
Clouds: missing
Present Weather: automated observation with no human augmentation;
there may or may not be significant weather present at this time
KX60 160235Z AUTO 04003KT 10SM 07/02 A3042 RMK A01

Conditions at: KX60 observed 16 January 2018  02:15 UTC
Temperature: 8.0°C (46°F)
Dewpoint: 2.0°C (36°F) [RH = 66%]
Pressure (altimeter): 30.42 inches Hg (1030.2 mb)
Winds: from the NE (40 degrees) at 6 MPH (5 knots; 2.6 m/s)
Visibility: 10 or more miles (16+ km)
Ceiling: unknown
Clouds: missing
Present Weather: automated observation with no human augmentation;
there may or may not be significant weather present at this time
KX60 160215Z AUTO 04005KT 10SM 08/02 A3042 RMK A01

Conditions at: KX60 observed 16 January 2018  01:55 UTC
Temperature: 8.0°C (46°F)
Dewpoint: 2.0°C (36°F) [RH = 66%]
Pressure (altimeter): 30.41 inches Hg (1029.9 mb)
Winds: calm
Visibility: 10 or more miles (16+ km)
Ceiling: unknown
Clouds: missing
Present Weather: automated observation with no human augmentation;
there may or may not be significant weather present at this time
KX60 160155Z AUTO 00000KT 10SM 08/02 A3041 RMK A01

Conditions at: KX60 observed 16 January 2018  01:35 UTC
Temperature: 9.0°C (48°F)
Dewpoint: 2.0°C (36°F) [RH = 61%]
Pressure (altimeter): 30.41 inches Hg (1029.9 mb)
Winds: calm
Visibility: 10 or more miles (16+ km)
Ceiling: unknown
Clouds: missing
Present Weather: automated observation with no human augmentation;
there may or may not be significant weather present at this time
KX60 160135Z AUTO 00000KT 10SM 09/02 A3041 RMK A01

Conditions at: KX60 observed 16 January 2018  01:15 UTC
Temperature: 9.0°C (48°F)
Dewpoint: 2.0°C (36°F) [RH = 61%]
Pressure (altimeter): 30.40 inches Hg (1029.5 mb)
Winds: from the NNE (30 degrees) at 5 MPH (4 knots; 2.1 m/s)
Visibility: 10 or more miles (16+ km)
Ceiling: unknown
Clouds: missing
Present Weather: automated observation with no human augmentation;
there may or may not be significant weather present at this time
KX60 160115Z AUTO 03004KT 10SM 09/02 A3040 RMK A01

Conditions at: KX60 observed 16 January 2018  00:55 UTC
Temperature: 10.0°C (50°F)
Dewpoint: 2.0°C (36°F) [RH = 57%]
Pressure (altimeter): 30.40 inches Hg (1029.5 mb)
Winds: from the NNE (30 degrees) at 5 MPH (4 knots; 2.1 m/s)
Visibility: 10 or more miles (16+ km)
Ceiling: unknown
Clouds: missing
Present Weather: automated observation with no human augmentation;
there may or may not be significant weather present at this time
KX60 160055Z AUTO 03004KT 10SM 10/02 A3040 RMK A01

Conditions at: KX60 observed 16 January 2018  00:35 UTC
Temperature: 10.0°C (50°F)
Dewpoint: 2.0°C (36°F) [RH = 57%]
Pressure (altimeter): 30.39 inches Hg (1029.2 mb)
Winds: from the NE (40 degrees) at 5 MPH (4 knots; 2.1 m/s)
Visibility: 10 or more miles (16+ km)
Ceiling: unknown
Clouds: missing
Present Weather: automated observation with no human augmentation;
there may or may not be significant weather present at this time
KX60 160035Z AUTO 04004KT 10SM 10/02 A3039 RMK A01

Conditions at: KX60 observed 16 January 2018  00:15 UTC
Temperature: 11.0°C (52°F)
Dewpoint: 3.0°C (37°F) [RH = 58%]
Pressure (altimeter): 30.38 inches Hg (1028.9 mb)
Winds: from the NNE (30 degrees) at 3 MPH (3 knots; 1.6 m/s)
Visibility: 10 or more miles (16+ km)
Ceiling: unknown
Clouds: missing
Present Weather: automated observation with no human augmentation;
there may or may not be significant weather present at this time
KX60 160015Z AUTO 03003KT 10SM 11/03 A3038 RMK A01

Conditions at: KX60 observed 15 January 2018  23:55 UTC
Temperature: 11.0°C (52°F)
Dewpoint: 3.0°C (37°F) [RH = 58%]
Pressure (altimeter): 30.38 inches Hg (1028.9 mb)
Winds: from the NE (40 degrees) at 5 MPH (4 knots; 2.1 m/s)
Visibility: 10 or more miles (16+ km)
Ceiling: unknown
Clouds: missing
Present Weather: automated observation with no human augmentation;
there may or may not be significant weather present at this time
KX60 152355Z AUTO 04004KT 10SM 11/03 A3038 RMK A01

Conditions at: KX60 observed 15 January 2018  23:35 UTC
Temperature: 12.0°C (54°F)
Dewpoint: 3.0°C (37°F) [RH = 54%]
Pressure (altimeter): 30.37 inches Hg (1028.5 mb)
Winds: from the NNE (30 degrees) at 5 MPH (4 knots; 2.1 m/s)
Visibility: 10 or more miles (16+ km)
Ceiling: unknown
Clouds: missing
Present Weather: automated observation with no human augmentation;
there may or may not be significant weather present at this time
KX60 152335Z AUTO 03004KT 10SM 12/03 A3037 RMK A01

Conditions at: KX60 observed 15 January 2018  23:15 UTC
Temperature: 13.0°C (55°F)
Dewpoint: 3.0°C (37°F) [RH = 51%]
Pressure (altimeter): 30.36 inches Hg (1028.2 mb)
Winds: from the NNE (20 degrees) at 5 MPH (4 knots; 2.1 m/s)
Visibility: 9 miles (14 km)
Ceiling: unknown
Clouds: missing
Present Weather: automated observation with no human augmentation;
there may or may not be significant weather present at this time
KX60 152315Z AUTO 02004KT 9SM 13/03 A3036 RMK A01

Conditions at: KX60 observed 15 January 2018  22:55 UTC
Temperature: 13.0°C (55°F)
Dewpoint: 3.0°C (37°F) [RH = 51%]
Pressure (altimeter): 30.36 inches Hg (1028.2 mb)
Winds: from the NNE (30 degrees) at 5 MPH (4 knots; 2.1 m/s)
Visibility: 9 miles (14 km)
Ceiling: unknown
Clouds: missing
Present Weather: automated observation with no human augmentation;
there may or may not be significant weather present at this time
KX60 152255Z AUTO 03004KT 9SM 13/03 A3036 RMK A01

Conditions at: KX60 observed 15 January 2018  22:35 UTC
Temperature: 14.0°C (57°F)
Dewpoint: 2.0°C (36°F) [RH = 44%]
Pressure (altimeter): 30.35 inches Hg (1027.9 mb)
Winds: from the N (10 degrees) at 8 MPH (7 knots; 3.6 m/s)
Visibility: 9 miles (14 km)
Ceiling: unknown
Clouds: missing
Present Weather: automated observation with no human augmentation;
there may or may not be significant weather present at this time
KX60 152235Z AUTO 01007KT 9SM 14/02 A3035 RMK A01